Time;durP1;ratioP1;P1;durP2;ratioP2;P2;SDS_P1;SDS_P2;PMS_P1;PMS_P2;Temp;Humidity;BMP_temperature;BMP_pressure;BME280_temperature;BME280_humidity;BME280_pressure;Samples;Min_cycle;Max_cycle;Signal;HPM_P1;HPM_P2
2022/03/30 00:00:51;;;;;;;21.90;5.80;;;6.90;77.70;;;;;;2088861;28;20351;-68
2022/03/30 00:01:52;;;;;;;17.43;4.27;;;6.80;78.10;;;;;;2088146;28;20190;-68
2022/03/30 00:02:53;;;;;;;17.85;4.28;;;6.80;79.20;;;;;;2088850;28;20258;-68
2022/03/30 00:03:53;;;;;;;19.33;5.57;;;6.70;79.30;;;;;;2088672;28;20177;-68
2022/03/30 00:04:54;;;;;;;20.03;5.27;;;6.70;79.60;;;;;;2088813;28;20180;-67
2022/03/30 00:05:55;;;;;;;14.43;4.80;;;6.70;79.50;;;;;;2088751;28;20175;-68
2022/03/30 00:06:57;;;;;;;13.23;4.57;;;6.70;80.10;;;;;;2088188;28;20182;-68
2022/03/30 00:07:57;;;;;;;13.73;4.65;;;6.70;80.50;;;;;;2088029;28;20184;-69
2022/03/30 00:08:58;;;;;;;18.27;4.97;;;6.60;80.60;;;;;;2088330;28;20286;-68
2022/03/30 00:09:59;;;;;;;17.20;4.97;;;6.60;81.00;;;;;;2088806;28;20180;-68
2022/03/30 00:11:00;;;;;;;19.27;4.43;;;6.60;81.40;;;;;;2088280;28;20202;-69
2022/03/30 00:12:01;;;;;;;15.83;5.90;;;6.60;80.20;;;;;;2087545;28;20184;-69
2022/03/30 00:13:03;;;;;;;17.00;4.93;;;6.60;80.70;;;;;;2088918;28;20184;-68
2022/03/30 00:14:03;;;;;;;20.17;5.00;;;6.60;81.30;;;;;;2088786;28;20211;-69
2022/03/30 00:15:05;;;;;;;14.53;4.03;;;6.70;80.70;;;;;;2088274;28;20231;-68
2022/03/30 00:16:08;;;;;;;20.42;4.82;;;6.70;80.30;;;;;;2087741;28;20664;-69
2022/03/30 00:17:08;;;;;;;13.93;4.03;;;6.70;80.10;;;;;;2088751;28;20207;-68
2022/03/30 00:18:09;;;;;;;13.33;4.70;;;6.70;80.30;;;;;;2088784;28;20175;-69
2022/03/30 00:19:10;;;;;;;20.77;4.50;;;6.70;79.90;;;;;;2088776;28;20172;-68
2022/03/30 00:20:11;;;;;;;14.30;4.37;;;6.70;79.70;;;;;;2087764;28;20666;-68
2022/03/30 00:21:11;;;;;;;19.30;4.45;;;6.70;79.80;;;;;;2079306;28;20382;-69
2022/03/30 00:22:12;;;;;;;16.90;4.60;;;6.60;80.30;;;;;;2087892;28;20651;-68
2022/03/30 00:23:13;;;;;;;22.97;4.40;;;6.60;80.80;;;;;;2088020;28;20227;-69
2022/03/30 00:24:14;;;;;;;18.77;4.77;;;6.70;80.60;;;;;;2088044;28;20191;-69
2022/03/30 00:25:15;;;;;;;23.73;6.33;;;6.70;80.30;;;;;;2088649;28;20450;-68
2022/03/30 00:26:15;;;;;;;19.93;5.37;;;6.70;79.60;;;;;;2088728;28;20219;-69
2022/03/30 00:27:16;;;;;;;15.40;4.53;;;6.80;79.20;;;;;;2088737;28;20187;-69
2022/03/30 00:28:17;;;;;;;14.53;4.07;;;6.80;79.00;;;;;;2088542;28;20184;-68
2022/03/30 00:29:18;;;;;;;16.67;4.90;;;6.80;79.30;;;;;;2087979;28;20635;-69
2022/03/30 00:30:20;;;;;;;11.57;3.90;;;6.80;79.30;;;;;;2088034;28;20191;-68
2022/03/30 00:31:21;;;;;;;20.45;4.68;;;6.70;79.40;;;;;;2087947;28;20183;-69
2022/03/30 00:32:21;;;;;;;19.13;4.50;;;6.70;79.40;;;;;;2088088;28;20192;-68
2022/03/30 00:33:22;;;;;;;21.67;5.07;;;6.70;80.10;;;;;;2087428;28;20208;-68
2022/03/30 00:34:23;;;;;;;15.63;4.57;;;6.70;81.50;;;;;;2088484;28;20192;-69
2022/03/30 00:35:24;;;;;;;17.77;4.67;;;6.70;80.10;;;;;;2088370;28;20435;-69
2022/03/30 00:36:24;;;;;;;14.67;4.10;;;6.70;80.50;;;;;;2088051;28;20176;-69
2022/03/30 00:37:25;;;;;;;16.33;5.10;;;6.70;80.80;;;;;;2087846;28;20176;-69
2022/03/30 00:38:26;;;;;;;12.27;4.77;;;6.70;80.60;;;;;;2088675;28;20187;-69
2022/03/30 00:39:26;;;;;;;15.50;4.73;;;6.70;80.20;;;;;;2087803;28;20180;-68
2022/03/30 00:40:27;;;;;;;19.27;4.63;;;6.80;80.40;;;;;;2088258;28;20352;-68
2022/03/30 00:41:30;;;;;;;20.67;5.00;;;6.80;80.50;;;;;;2082085;28;20185;-68
2022/03/30 00:42:31;;;;;;;17.92;4.82;;;6.80;80.20;;;;;;2088715;28;20180;-68
2022/03/30 00:43:33;;;;;;;16.80;5.00;;;6.80;79.80;;;;;;2088744;28;20259;-69
2022/03/30 00:44:34;;;;;;;17.90;5.53;;;6.80;79.10;;;;;;2088775;28;20190;-69
2022/03/30 00:45:34;;;;;;;18.40;4.33;;;6.80;78.80;;;;;;2089142;28;20804;-68
2022/03/30 00:46:35;;;;;;;11.97;3.97;;;6.80;78.80;;;;;;2088728;28;20546;-68
2022/03/30 00:47:36;;;;;;;16.50;5.03;;;6.90;78.00;;;;;;2088565;28;20632;-69
2022/03/30 00:48:37;;;;;;;27.23;5.45;;;6.90;78.40;;;;;;2088760;28;20816;-69
2022/03/30 00:49:37;;;;;;;21.53;4.77;;;6.90;78.00;;;;;;2088484;28;20176;-68
2022/03/30 00:50:38;;;;;;;15.90;4.93;;;6.90;77.60;;;;;;2088583;28;20180;-68
2022/03/30 00:51:39;;;;;;;13.73;4.23;;;7.00;77.80;;;;;;2087911;28;20190;-68
2022/03/30 00:52:40;;;;;;;14.52;4.35;;;7.10;77.50;;;;;;2088641;28;20519;-68
2022/03/30 00:53:41;;;;;;;19.70;4.80;;;7.00;77.40;;;;;;2087727;28;20202;-68
2022/03/30 00:54:44;;;;;;;14.47;4.60;;;7.00;77.10;;;;;;2087901;28;20191;-68
2022/03/30 00:55:45;;;;;;;22.35;4.78;;;7.00;76.60;;;;;;2088099;28;20188;-68
2022/03/30 00:56:47;;;;;;;15.50;4.50;;;7.00;76.50;;;;;;2087959;28;20215;-68
2022/03/30 00:57:48;;;;;;;22.05;5.10;;;7.00;76.40;;;;;;2087692;28;20215;-68
2022/03/30 00:58:49;;;;;;;18.38;5.60;;;7.00;76.90;;;;;;2087923;28;20188;-68
2022/03/30 00:59:51;;;;;;;21.13;4.75;;;7.00;77.20;;;;;;2087756;28;20184;-69
2022/03/30 01:00:51;;;;;;;20.33;5.03;;;7.00;77.10;;;;;;2079735;28;20217;-68
2022/03/30 01:01:52;;;;;;;17.93;4.57;;;7.00;77.40;;;;;;2087168;28;20176;-69
2022/03/30 01:02:53;;;;;;;17.03;4.80;;;7.00;77.10;;;;;;2088602;28;20934;-69
2022/03/30 01:03:54;;;;;;;21.40;5.30;;;7.00;76.70;;;;;;2088442;28;20678;-69
2022/03/30 01:04:55;;;;;;;19.58;5.60;;;7.00;76.60;;;;;;2088517;28;20180;-69
2022/03/30 01:05:56;;;;;;;14.87;4.37;;;7.10;76.60;;;;;;2087771;28;20176;-69
2022/03/30 01:06:56;;;;;;;15.37;4.20;;;7.00;77.60;;;;;;2087899;28;20176;-69
2022/03/30 01:08:00;;;;;;;13.77;4.93;;;7.00;77.90;;;;;;2088462;28;20176;-69
2022/03/30 01:09:01;;;;;;;18.25;4.95;;;7.00;78.30;;;;;;2088549;28;20655;-69
2022/03/30 01:10:07;;;;;;;15.45;5.15;;;7.00;77.80;;;;;;2088326;28;20659;-68
2022/03/30 01:11:10;;;;;;;20.80;4.72;;;7.10;77.60;;;;;;2087928;28;20227;-68
2022/03/30 01:12:12;;;;;;;14.05;4.03;;;7.10;77.50;;;;;;2087819;28;20184;-69
2022/03/30 01:13:13;;;;;;;14.45;5.00;;;7.10;77.10;;;;;;2079929;28;20683;-69
2022/03/30 01:14:14;;;;;;;20.50;4.93;;;7.10;76.10;;;;;;2087798;28;20187;-68
2022/03/30 01:15:14;;;;;;;16.13;5.80;;;7.10;76.00;;;;;;2088143;28;20207;-69
2022/03/30 01:16:15;;;;;;;18.73;5.00;;;7.00;75.80;;;;;;2088513;28;20680;-69
2022/03/30 01:17:16;;;;;;;15.93;4.80;;;7.00;76.00;;;;;;2088733;28;20245;-69
2022/03/30 01:18:17;;;;;;;20.63;5.03;;;7.00;76.60;;;;;;2087832;28;20651;-68
2022/03/30 01:19:18;;;;;;;19.03;5.07;;;7.00;76.10;;;;;;2079597;28;20239;-69
2022/03/30 01:20:21;;;;;;;14.23;4.47;;;7.00;76.60;;;;;;2087934;28;20204;-69
2022/03/30 01:21:22;;;;;;;16.63;4.28;;;7.00;76.50;;;;;;2087885;28;20480;-68
2022/03/30 01:22:23;;;;;;;18.70;4.80;;;7.10;76.90;;;;;;2088615;28;20615;-68
2022/03/30 01:23:23;;;;;;;17.80;5.07;;;7.30;75.40;;;;;;2088428;28;20180;-68
2022/03/30 01:24:25;;;;;;;15.53;4.40;;;7.40;74.40;;;;;;2088585;28;20183;-67
2022/03/30 01:25:25;;;;;;;13.40;4.70;;;7.50;73.80;;;;;;2087968;28;20204;-68
2022/03/30 01:26:26;;;;;;;15.87;4.50;;;7.60;72.10;;;;;;2087878;28;20187;-68
2022/03/30 01:27:27;;;;;;;14.57;5.10;;;7.80;71.10;;;;;;2087589;28;20203;-68
2022/03/30 01:28:28;;;;;;;15.73;4.53;;;7.80;70.40;;;;;;2088945;28;20207;-69
2022/03/30 01:32:28;;;;;;;15.25;5.15;;;7.90;70.20;;;;;;2089778;28;20160;-68
2022/03/30 01:33:32;;;;;;;24.75;4.95;;;7.90;70.80;;;;;;2089275;28;20203;-68
2022/03/30 01:34:32;;;;;;;25.75;5.10;;;8.00;70.20;;;;;;2089878;28;20168;-68
2022/03/30 01:35:34;;;;;;;18.17;4.67;;;8.00;69.40;;;;;;2089980;28;20705;-68
2022/03/30 01:36:35;;;;;;;18.73;4.82;;;8.10;69.00;;;;;;2089490;28;20570;-69
2022/03/30 01:37:36;;;;;;;16.98;4.40;;;8.10;68.50;;;;;;2089237;28;20215;-68
2022/03/30 01:38:37;;;;;;;10.67;3.80;;;8.20;68.40;;;;;;2090066;28;20216;-68
2022/03/30 01:39:38;;;;;;;16.38;4.65;;;8.20;68.30;;;;;;2089341;28;20609;-68
2022/03/30 01:40:39;;;;;;;17.48;4.70;;;8.30;68.60;;;;;;2089419;28;20238;-69
2022/03/30 01:41:40;;;;;;;16.53;5.40;;;8.30;68.20;;;;;;2089343;28;20176;-68
2022/03/30 01:42:40;;;;;;;15.73;4.03;;;8.30;67.70;;;;;;2089900;28;20180;-68
2022/03/30 01:43:41;;;;;;;17.27;4.80;;;8.40;67.30;;;;;;2089898;28;20184;-69
2022/03/30 01:44:42;;;;;;;15.60;4.50;;;8.30;67.50;;;;;;2089828;28;20253;-69
2022/03/30 01:45:42;;;;;;;16.10;4.80;;;8.30;67.70;;;;;;2089256;28;20208;-68
2022/03/30 01:46:43;;;;;;;19.27;5.40;;;8.40;68.10;;;;;;2081075;28;20177;-68
2022/03/30 01:47:57;;;;;;;16.10;6.03;;;8.30;68.80;;;;;;2089155;28;20756;-68
2022/03/30 01:48:57;;;;;;;16.02;5.28;;;8.30;68.40;;;;;;2090126;28;20202;-67
2022/03/30 01:49:58;;;;;;;19.53;4.50;;;8.40;68.10;;;;;;2089340;28;20702;-68
2022/03/30 01:50:59;;;;;;;18.40;4.83;;;8.40;68.00;;;;;;2089237;28;20692;-68
2022/03/30 01:52:00;;;;;;;17.38;5.20;;;8.40;68.60;;;;;;2088475;28;20187;-68
2022/03/30 01:53:01;;;;;;;16.30;4.63;;;8.40;69.00;;;;;;2089231;28;20271;-68
2022/03/30 01:54:02;;;;;;;12.23;4.63;;;8.40;68.70;;;;;;2089891;28;20184;-68
2022/03/30 01:55:03;;;;;;;17.53;5.47;;;8.40;69.40;;;;;;2089965;28;20233;-68
2022/03/30 01:56:04;;;;;;;17.27;5.28;;;8.40;69.40;;;;;;2089859;28;20697;-69
2022/03/30 01:57:06;;;;;;;12.97;4.30;;;8.40;69.10;;;;;;2089858;28;20181;-69
2022/03/30 01:58:07;;;;;;;12.10;4.43;;;8.40;68.80;;;;;;2089128;28;20189;-68
2022/03/30 01:59:08;;;;;;;14.37;4.70;;;8.40;68.80;;;;;;2080867;28;20182;-68
2022/03/30 02:00:11;;;;;;;19.27;4.90;;;8.40;68.50;;;;;;2089341;28;20230;-68
2022/03/30 02:01:13;;;;;;;14.15;4.60;;;8.30;69.50;;;;;;2088744;28;20188;-69
2022/03/30 02:02:13;;;;;;;10.90;4.57;;;8.40;69.50;;;;;;2089224;28;20180;-69
2022/03/30 02:03:14;;;;;;;13.97;4.33;;;8.40;69.20;;;;;;2089931;28;20177;-68
2022/03/30 02:04:15;;;;;;;15.68;4.63;;;8.40;69.50;;;;;;2089891;28;20180;-68
2022/03/30 02:05:18;;;;;;;16.97;4.10;;;8.40;70.00;;;;;;2089393;28;20214;-68
2022/03/30 02:06:22;;;;;;;14.55;4.32;;;8.40;69.70;;;;;;2089268;28;20184;-68
2022/03/30 02:07:23;;;;;;;11.00;4.43;;;8.40;70.00;;;;;;2089949;28;20188;-69
2022/03/30 02:08:24;;;;;;;13.17;4.53;;;8.50;69.50;;;;;;2089768;28;20181;-68
2022/03/30 02:09:24;;;;;;;11.60;3.87;;;8.60;69.30;;;;;;2089874;28;20183;-68
2022/03/30 02:10:25;;;;;;;10.50;4.73;;;8.60;69.50;;;;;;2089872;28;20251;-68
2022/03/30 02:11:26;;;;;;;23.00;5.60;;;8.60;69.60;;;;;;2088689;28;20595;-68
2022/03/30 02:12:26;;;;;;;16.47;4.53;;;8.60;69.30;;;;;;2089282;28;20267;-69
2022/03/30 02:13:27;;;;;;;12.93;4.80;;;8.70;69.10;;;;;;2089171;28;20206;-68
2022/03/30 02:14:28;;;;;;;14.17;4.60;;;8.70;68.80;;;;;;2089282;28;20210;-69
2022/03/30 02:15:29;;;;;;;16.27;4.40;;;8.60;69.50;;;;;;2089820;28;20204;-69
2022/03/30 02:16:29;;;;;;;12.00;3.93;;;8.60;70.80;;;;;;2089414;28;20586;-68
2022/03/30 02:17:30;;;;;;;17.73;4.73;;;8.60;72.10;;;;;;2089164;28;20208;-69
2022/03/30 02:18:31;;;;;;;16.67;4.73;;;8.60;72.20;;;;;;2090036;28;20267;-68
2022/03/30 02:19:31;;;;;;;9.40;4.67;;;8.60;73.30;;;;;;2089675;28;20633;-68
2022/03/30 02:20:32;;;;;;;15.43;4.63;;;8.60;73.70;;;;;;2089751;28;20370;-69
2022/03/30 02:21:34;;;;;;;12.38;4.75;;;8.60;74.40;;;;;;2088503;28;20177;-68
2022/03/30 02:22:35;;;;;;;14.15;4.47;;;8.50;75.60;;;;;;2089487;28;20176;-69
2022/03/30 02:23:35;;;;;;;15.47;4.20;;;8.50;76.50;;;;;;2089819;28;20269;-68
2022/03/30 02:24:37;;;;;;;15.00;4.53;;;8.40;77.80;;;;;;2089827;28;20232;-68
2022/03/30 02:25:37;;;;;;;14.02;5.18;;;8.30;78.60;;;;;;2089913;28;20662;-69
2022/03/30 02:26:38;;;;;;;12.77;4.30;;;8.30;78.60;;;;;;2089837;28;20187;-68
2022/03/30 02:27:39;;;;;;;13.10;4.40;;;8.20;78.60;;;;;;2089782;28;20215;-68
2022/03/30 02:28:43;;;;;;;15.07;4.30;;;8.20;80.00;;;;;;2089971;28;20217;-68
2022/03/30 02:29:46;;;;;;;11.77;4.53;;;8.20;81.40;;;;;;2089015;28;20244;-68
2022/03/30 02:30:47;;;;;;;16.02;5.15;;;8.20;81.40;;;;;;2088967;28;20180;-69
2022/03/30 02:31:47;;;;;;;13.20;4.57;;;8.00;81.30;;;;;;2089306;28;20671;-68
2022/03/30 02:32:48;;;;;;;12.57;4.37;;;8.00;82.20;;;;;;2089799;28;20172;-68
2022/03/30 02:33:50;;;;;;;17.87;5.10;;;7.90;83.40;;;;;;2089479;28;20724;-68
2022/03/30 02:34:51;;;;;;;17.58;4.60;;;7.80;83.30;;;;;;2089850;28;20172;-68
2022/03/30 02:35:52;;;;;;;14.80;4.20;;;7.80;83.90;;;;;;2089134;28;20244;-67
2022/03/30 02:36:53;;;;;;;12.52;4.75;;;7.70;84.10;;;;;;2089291;28;20721;-68
2022/03/30 02:37:56;;;;;;;11.27;5.03;;;7.70;85.10;;;;;;2089136;28;20181;-68
2022/03/30 02:38:57;;;;;;;13.88;5.03;;;7.70;86.20;;;;;;2081110;28;20232;-67
2022/03/30 02:39:58;;;;;;;16.30;4.83;;;7.70;86.70;;;;;;2089031;28;20204;-67
2022/03/30 02:40:58;;;;;;;13.37;4.23;;;7.70;88.40;;;;;;2089027;28;20251;-67
2022/03/30 02:41:59;;;;;;;19.63;5.17;;;7.70;90.20;;;;;;2088467;28;20176;-68
2022/03/30 02:43:00;;;;;;;15.13;5.60;;;7.70;91.40;;;;;;2089877;28;20246;-67
2022/03/30 02:44:01;;;;;;;17.77;5.45;;;7.70;91.30;;;;;;2089637;28;20545;-68
2022/03/30 02:45:03;;;;;;;14.50;5.00;;;7.80;91.60;;;;;;2089847;28;20196;-68
2022/03/30 02:46:05;;;;;;;14.88;5.28;;;7.70;92.10;;;;;;2089581;28;20165;-67
2022/03/30 02:47:06;;;;;;;12.75;5.05;;;7.80;91.60;;;;;;2089075;28;20259;-69
2022/03/30 02:48:19;;;;;;;18.33;5.18;;;7.80;92.40;;;;;;2080816;28;20212;-69
2022/03/30 02:49:19;;;;;;;19.65;5.15;;;7.80;89.40;;;;;;2089262;28;20683;-67
2022/03/30 02:50:20;;;;;;;17.43;5.53;;;7.80;88.70;;;;;;2089565;28;20188;-66
2022/03/30 02:51:21;;;;;;;14.27;4.87;;;7.80;91.00;;;;;;2089125;28;20177;-69
2022/03/30 02:52:21;;;;;;;11.40;4.67;;;7.80;92.00;;;;;;2089477;28;20317;-67
2022/03/30 02:53:23;;;;;;;11.93;5.00;;;7.80;90.80;;;;;;2089617;28;20189;-69
2022/03/30 02:54:24;;;;;;;18.00;5.68;;;7.80;91.40;;;;;;2089471;28;20191;-68
2022/03/30 02:55:25;;;;;;;15.90;4.45;;;7.80;92.80;;;;;;2089180;28;20216;-68
2022/03/30 02:56:25;;;;;;;14.13;5.20;;;7.80;93.00;;;;;;2087460;28;20180;-68
2022/03/30 02:57:26;;;;;;;18.30;5.40;;;7.80;93.30;;;;;;2089592;28;20648;-68
2022/03/30 02:58:27;;;;;;;14.57;5.43;;;7.80;93.90;;;;;;2089459;28;20898;-67
2022/03/30 02:59:28;;;;;;;13.52;5.82;;;7.70;96.00;;;;;;2089027;28;20188;-67
2022/03/30 03:00:29;;;;;;;15.63;6.60;;;7.70;96.50;;;;;;2088812;28;20231;-68
2022/03/30 03:01:29;;;;;;;17.13;5.93;;;7.60;97.90;;;;;;2088432;28;20275;-68
2022/03/30 03:02:30;;;;;;;16.43;6.07;;;7.60;99.20;;;;;;2088908;28;20192;-68
2022/03/30 03:03:31;;;;;;;16.07;5.50;;;7.60;99.80;;;;;;2089570;28;20180;-67
2022/03/30 03:04:32;;;;;;;21.67;6.63;;;7.50;99.90;;;;;;2089431;28;20554;-68
2022/03/30 03:05:32;;;;;;;16.93;5.27;;;7.50;99.90;;;;;;2089419;28;20223;-67
2022/03/30 03:06:33;;;;;;;17.27;6.73;;;7.50;99.90;;;;;;2089597;28;20183;-67
2022/03/30 03:07:34;;;;;;;13.00;5.53;;;7.50;99.90;;;;;;2089774;28;20698;-67
2022/03/30 03:08:35;;;;;;;20.63;6.30;;;7.40;99.90;;;;;;2089524;28;20199;-68
2022/03/30 03:09:35;;;;;;;17.73;6.20;;;7.40;99.90;;;;;;2088632;28;20427;-68
2022/03/30 03:10:39;;;;;;;18.43;6.27;;;7.40;99.90;;;;;;2088726;28;20184;-68
2022/03/30 03:11:40;;;;;;;17.15;6.45;;;7.40;99.90;;;;;;2088665;28;20200;-68
2022/03/30 03:12:41;;;;;;;19.17;5.70;;;7.40;99.90;;;;;;2089339;28;20180;-68
2022/03/30 03:13:41;;;;;;;16.27;6.30;;;7.40;99.90;;;;;;2089191;28;20196;-68
2022/03/30 03:14:42;;;;;;;14.43;6.53;;;7.40;99.90;;;;;;2089399;28;20262;-68
2022/03/30 03:15:46;;;;;;;13.83;5.30;;;7.30;99.90;;;;;;2089133;28;20267;-68
2022/03/30 03:16:46;;;;;;;14.27;6.68;;;7.30;99.90;;;;;;2088811;28;20184;-68
2022/03/30 03:17:47;;;;;;;16.53;5.77;;;7.30;99.90;;;;;;2088580;28;20184;-68
2022/03/30 03:18:48;;;;;;;17.67;7.10;;;7.30;99.90;;;;;;2089340;28;20188;-68
2022/03/30 03:19:49;;;;;;;21.48;6.90;;;7.20;99.90;;;;;;2089421;28;20180;-68
2022/03/30 03:20:50;;;;;;;20.60;6.67;;;7.20;99.90;;;;;;2088869;28;20208;-68
2022/03/30 03:21:50;;;;;;;16.33;7.38;;;7.30;99.90;;;;;;2088035;28;20176;-68
2022/03/30 03:22:51;;;;;;;19.30;6.87;;;7.30;99.90;;;;;;2088943;28;20238;-68
2022/03/30 03:23:52;;;;;;;16.53;7.33;;;7.20;99.90;;;;;;2088825;28;20267;-68
2022/03/30 03:24:52;;;;;;;16.60;6.23;;;7.20;99.90;;;;;;2089303;28;20176;-67
2022/03/30 03:25:53;;;;;;;19.47;7.40;;;7.20;99.90;;;;;;2094106;28;20176;-69
2022/03/30 03:26:54;;;;;;;18.23;6.97;;;7.20;99.90;;;;;;2094251;28;20206;-67
2022/03/30 03:27:56;;;;;;;17.08;7.13;;;7.20;99.90;;;;;;2094566;28;20176;-67
2022/03/30 03:28:56;;;;;;;16.50;6.38;;;7.20;99.90;;;;;;2094004;28;20555;-67
2022/03/30 03:29:57;;;;;;;16.37;6.87;;;7.20;99.90;;;;;;2093800;28;20236;-68
2022/03/30 03:30:58;;;;;;;19.90;7.13;;;7.20;99.90;;;;;;2093679;28;20640;-67
2022/03/30 03:31:58;;;;;;;17.47;7.43;;;7.20;99.90;;;;;;2092448;28;20185;-67
2022/03/30 03:33:01;;;;;;;21.17;6.57;;;7.20;99.90;;;;;;2093129;28;20192;-68
2022/03/30 03:34:02;;;;;;;14.13;6.38;;;7.20;99.90;;;;;;2093632;28;20160;-67
2022/03/30 03:35:03;;;;;;;17.87;6.40;;;7.20;99.90;;;;;;2093747;28;20768;-68
2022/03/30 03:36:05;;;;;;;17.27;6.57;;;7.20;99.90;;;;;;2094034;28;20194;-68
2022/03/30 03:37:05;;;;;;;11.73;6.32;;;7.20;99.90;;;;;;2091733;28;20268;-67
2022/03/30 03:38:08;;;;;;;16.47;6.63;;;7.20;99.90;;;;;;2089164;28;20705;-67
2022/03/30 03:39:08;;;;;;;21.20;6.75;;;7.20;99.90;;;;;;2088838;28;20245;-67
2022/03/30 03:40:10;;;;;;;13.40;6.67;;;7.20;99.90;;;;;;2088824;28;20184;-69
2022/03/30 03:41:11;;;;;;;20.55;7.15;;;7.20;99.90;;;;;;2093368;28;20267;-69
2022/03/30 03:42:12;;;;;;;16.85;7.05;;;7.20;99.90;;;;;;2093264;28;20198;-67
2022/03/30 03:43:13;;;;;;;25.50;7.03;;;7.10;99.90;;;;;;2084915;28;20173;-69
2022/03/30 03:44:13;;;;;;;19.23;6.93;;;7.10;99.90;;;;;;2093123;28;20505;-68
2022/03/30 03:45:14;;;;;;;22.70;7.63;;;7.10;99.90;;;;;;2092424;28;20258;-67
2022/03/30 03:46:15;;;;;;;15.85;6.30;;;7.20;99.90;;;;;;2090285;28;20180;-67
2022/03/30 03:47:16;;;;;;;17.23;6.10;;;7.10;99.90;;;;;;2090145;28;20242;-68
2022/03/30 03:48:16;;;;;;;13.87;6.50;;;7.10;99.90;;;;;;2090468;28;20184;-69
2022/03/30 03:49:17;;;;;;;13.83;6.37;;;7.10;99.90;;;;;;2092418;28;20180;-68
2022/03/30 03:50:19;;;;;;;24.40;6.67;;;7.10;99.90;;;;;;2090776;28;20191;-69
2022/03/30 03:51:19;;;;;;;18.67;7.38;;;7.20;99.90;;;;;;2087997;28;20965;-68
2022/03/30 03:52:20;;;;;;;18.93;7.33;;;7.20;99.90;;;;;;2089869;28;20188;-68
2022/03/30 03:53:21;;;;;;;18.63;7.80;;;7.20;99.90;;;;;;2088941;28;20657;-68
2022/03/30 03:54:22;;;;;;;20.83;7.50;;;7.20;99.90;;;;;;2089168;28;20195;-69
2022/03/30 03:55:23;;;;;;;20.77;6.60;;;7.20;99.90;;;;;;2089978;28;20307;-68
2022/03/30 03:56:23;;;;;;;15.83;6.57;;;7.20;99.90;;;;;;2089753;28;20241;-68
2022/03/30 03:57:24;;;;;;;16.87;6.63;;;7.10;99.90;;;;;;2090704;28;20219;-68
2022/03/30 03:58:25;;;;;;;21.20;6.67;;;7.10;99.90;;;;;;2091174;28;20210;-68
2022/03/30 03:59:25;;;;;;;16.20;7.13;;;7.10;99.90;;;;;;2090523;28;20184;-68
2022/03/30 04:00:26;;;;;;;17.07;6.73;;;7.10;99.90;;;;;;2090167;28;20207;-67
2022/03/30 04:01:27;;;;;;;17.83;7.10;;;7.10;99.90;;;;;;2088494;28;20271;-69
2022/03/30 04:02:28;;;;;;;16.75;7.22;;;7.10;99.90;;;;;;2089244;28;20683;-68
2022/03/30 04:03:29;;;;;;;15.73;5.97;;;7.10;99.90;;;;;;2088426;28;20187;-68
2022/03/30 04:04:29;;;;;;;18.23;7.43;;;7.10;99.90;;;;;;2088574;28;20251;-68
2022/03/30 04:05:30;;;;;;;14.43;7.00;;;7.10;99.90;;;;;;2088935;28;20222;-68
2022/03/30 04:06:32;;;;;;;18.10;7.67;;;7.10;99.90;;;;;;2088481;28;20560;-68
2022/03/30 04:07:33;;;;;;;15.63;7.45;;;7.10;99.90;;;;;;2088329;28;20213;-67
2022/03/30 04:08:34;;;;;;;23.80;7.70;;;7.10;99.90;;;;;;2088421;28;20180;-68
2022/03/30 04:09:36;;;;;;;18.88;7.13;;;7.10;99.90;;;;;;2088894;28;20282;-68
2022/03/30 04:10:37;;;;;;;16.95;7.00;;;7.00;99.90;;;;;;2088379;28;20189;-67
2022/03/30 04:11:38;;;;;;;16.48;7.60;;;7.10;99.90;;;;;;2079555;28;20263;-67
2022/03/30 04:12:40;;;;;;;19.23;7.20;;;7.10;99.90;;;;;;2088400;28;20189;-67
2022/03/30 04:13:41;;;;;;;21.50;7.20;;;7.00;99.90;;;;;;2088815;28;20666;-67
2022/03/30 04:14:41;;;;;;;18.23;7.40;;;7.00;99.90;;;;;;2088315;28;20237;-66
2022/03/30 04:15:42;;;;;;;20.67;7.67;;;7.10;99.90;;;;;;2088127;28;20435;-66
2022/03/30 04:16:43;;;;;;;18.70;7.43;;;7.10;99.90;;;;;;2079986;28;20185;-66
2022/03/30 04:17:46;;;;;;;15.57;7.03;;;7.10;99.90;;;;;;2080111;28;20180;-66
2022/03/30 04:18:46;;;;;;;19.38;7.35;;;7.10;99.90;;;;;;2089254;28;20176;-69
2022/03/30 04:19:47;;;;;;;22.63;7.50;;;7.00;99.90;;;;;;2088233;28;20377;-67
2022/03/30 04:20:48;;;;;;;19.27;7.40;;;7.00;99.90;;;;;;2080053;28;20201;-67
2022/03/30 04:21:48;;;;;;;20.30;7.20;;;7.00;99.90;;;;;;2087669;28;20180;-66
2022/03/30 04:22:49;;;;;;;20.57;7.77;;;6.90;99.90;;;;;;2088544;28;20191;-66
2022/03/30 04:23:50;;;;;;;28.10;8.77;;;6.90;99.90;;;;;;2088770;28;20274;-66
2022/03/30 04:24:50;;;;;;;19.43;8.30;;;6.90;99.90;;;;;;2088893;28;20184;-66
2022/03/30 04:25:51;;;;;;;24.23;8.10;;;6.90;99.90;;;;;;2088944;28;20169;-66
2022/03/30 04:26:53;;;;;;;25.60;8.53;;;6.90;99.90;;;;;;2088264;28;20183;-67
2022/03/30 04:27:54;;;;;;;18.83;8.23;;;6.90;99.90;;;;;;2088113;28;20179;-66
2022/03/30 04:28:54;;;;;;;23.23;9.07;;;6.90;99.90;;;;;;2096369;28;20304;-67
2022/03/30 04:29:55;;;;;;;17.73;7.27;;;6.90;99.90;;;;;;2096462;28;20178;-66
2022/03/30 04:30:56;;;;;;;14.47;7.37;;;6.90;99.90;;;;;;2088871;28;20599;-68
2022/03/30 04:31:57;;;;;;;22.30;7.50;;;6.90;99.90;;;;;;2088311;28;20258;-67
2022/03/30 04:32:58;;;;;;;24.37;8.83;;;6.90;99.90;;;;;;2088565;28;20208;-66
2022/03/30 04:33:58;;;;;;;21.90;8.13;;;7.00;99.90;;;;;;2088881;28;20184;-67
2022/03/30 04:34:59;;;;;;;16.17;8.30;;;7.00;99.90;;;;;;2088602;28;20231;-67
2022/03/30 04:36:00;;;;;;;19.77;8.57;;;7.00;99.90;;;;;;2088988;28;20663;-66
2022/03/30 04:37:00;;;;;;;16.53;8.07;;;7.00;99.90;;;;;;2088739;28;20184;-67
2022/03/30 04:38:01;;;;;;;16.87;8.37;;;7.00;99.90;;;;;;2088793;28;20545;-67
2022/03/30 04:39:04;;;;;;;18.90;8.23;;;7.00;99.90;;;;;;2088146;28;20197;-66
2022/03/30 04:40:07;;;;;;;21.85;9.70;;;6.90;99.90;;;;;;2088244;28;20188;-67
2022/03/30 04:41:07;;;;;;;16.92;8.65;;;7.00;99.90;;;;;;2088031;28;20230;-66
2022/03/30 04:42:08;;;;;;;16.43;8.13;;;7.00;99.90;;;;;;2088689;28;20653;-66
2022/03/30 04:43:09;;;;;;;15.37;7.37;;;6.90;99.90;;;;;;2088663;28;20179;-67
2022/03/30 04:44:09;;;;;;;24.63;8.23;;;7.00;99.90;;;;;;2088709;28;20183;-67
2022/03/30 04:45:10;;;;;;;15.80;7.20;;;6.90;99.90;;;;;;2088617;28;20258;-69
2022/03/30 04:46:12;;;;;;;15.70;7.73;;;6.90;99.90;;;;;;2088928;28;20190;-68
2022/03/30 04:47:14;;;;;;;19.63;7.55;;;6.90;99.90;;;;;;2090885;28;20184;-68
2022/03/30 04:48:15;;;;;;;16.83;7.63;;;6.90;99.90;;;;;;2090311;28;20194;-68
2022/03/30 04:49:16;;;;;;;21.57;7.77;;;6.90;99.90;;;;;;2088133;28;20198;-67
2022/03/30 04:50:16;;;;;;;22.30;8.77;;;6.90;99.90;;;;;;2088395;28;20180;-68
2022/03/30 04:51:17;;;;;;;17.73;7.30;;;7.00;99.90;;;;;;2088274;28;20198;-67
2022/03/30 04:52:18;;;;;;;18.63;7.40;;;7.00;99.90;;;;;;2088764;28;20184;-68
2022/03/30 04:53:19;;;;;;;20.80;8.07;;;7.00;99.90;;;;;;2088063;28;20183;-67
2022/03/30 04:54:20;;;;;;;16.57;7.17;;;7.00;99.90;;;;;;2088094;28;20319;-68
2022/03/30 04:55:20;;;;;;;18.90;7.47;;;7.00;99.90;;;;;;2088556;28;20215;-67
2022/03/30 04:56:21;;;;;;;16.50;6.70;;;7.00;99.90;;;;;;2088114;28;20193;-68
2022/03/30 04:57:22;;;;;;;16.37;6.97;;;7.00;99.90;;;;;;2087935;28;20250;-68
2022/03/30 04:58:22;;;;;;;14.83;7.40;;;7.00;99.90;;;;;;2088754;28;20564;-68
2022/03/30 04:59:23;;;;;;;16.87;7.30;;;7.00;99.90;;;;;;2087991;28;20572;-68
2022/03/30 05:00:24;;;;;;;12.90;7.33;;;7.00;99.90;;;;;;2087932;28;20183;-67
2022/03/30 05:01:25;;;;;;;18.30;7.87;;;7.00;99.90;;;;;;2087379;28;20669;-68
2022/03/30 05:02:26;;;;;;;20.60;8.63;;;7.00;99.90;;;;;;2089035;28;20184;-67
2022/03/30 05:03:27;;;;;;;18.52;8.00;;;7.00;99.90;;;;;;2089513;28;20285;-68
2022/03/30 05:04:29;;;;;;;17.63;8.13;;;7.00;99.90;;;;;;2081456;28;20230;-68
2022/03/30 05:05:30;;;;;;;18.13;7.90;;;6.90;99.90;;;;;;2089567;28;20196;-68
2022/03/30 05:06:31;;;;;;;23.40;8.67;;;6.90;99.90;;;;;;2090345;28;20195;-68
2022/03/30 05:07:31;;;;;;;22.53;8.90;;;6.80;99.90;;;;;;2090066;28;20277;-68
2022/03/30 05:08:32;;;;;;;21.17;7.33;;;6.80;99.90;;;;;;2089576;28;20226;-67
2022/03/30 05:09:33;;;;;;;18.97;9.27;;;6.80;99.90;;;;;;2089483;28;20199;-68
2022/03/30 05:10:34;;;;;;;16.00;8.07;;;6.80;99.90;;;;;;2090082;28;20195;-68
2022/03/30 05:11:34;;;;;;;19.20;7.97;;;6.90;99.90;;;;;;2088938;28;20183;-67
2022/03/30 05:12:35;;;;;;;22.33;7.23;;;6.90;99.90;;;;;;2089413;28;20666;-68
2022/03/30 05:13:36;;;;;;;19.00;8.30;;;6.90;99.90;;;;;;2090194;28;20190;-68
2022/03/30 05:14:37;;;;;;;23.37;7.63;;;6.90;99.90;;;;;;2090110;28;20184;-67
2022/03/30 05:15:37;;;;;;;19.97;8.23;;;7.00;99.90;;;;;;2090058;28;20262;-68
2022/03/30 05:16:38;;;;;;;18.13;7.67;;;7.00;99.90;;;;;;2090092;28;20686;-68
2022/03/30 05:17:44;;;;;;;26.00;7.97;;;7.00;99.90;;;;;;2090246;28;20610;-67
2022/03/30 05:18:44;;;;;;;21.45;7.22;;;7.00;99.90;;;;;;2089409;28;20187;-68
2022/03/30 05:19:45;;;;;;;18.77;7.23;;;7.00;99.90;;;;;;2089609;28;20266;-68
2022/03/30 05:20:46;;;;;;;12.20;6.43;;;7.10;99.90;;;;;;2089965;28;20208;-68
2022/03/30 05:21:47;;;;;;;21.13;8.20;;;7.10;99.90;;;;;;2089431;28;20180;-67